Time,TemperatureF,DewpointF,PressureIn,WindDirection,WindDirectionDegrees,WindSpeedMPH,WindSpeedGustMPH,Humidity,HourlyPrecipIn,Conditions,Clouds,dailyrainin,SoftwareType,DateUTC
2013-06-11 00:02:00,58.7,-99.9,28.81,North,-999,-999.0,-999.0,-999,-99.99,,,-99.99,,2013-06-11 04:02:00,
2013-06-11 00:04:00,58.7,-99.9,28.81,North,-999,-999.0,-999.0,-999,-99.99,,,-99.99,,2013-06-11 04:04:00,
2013-06-11 00:08:00,58.7,-99.9,28.81,North,-999,-999.0,-999.0,-999,-99.99,,,-99.99,,2013-06-11 04:08:00,
2013-06-11 00:10:00,58.8,-99.9,28.81,North,-999,-999.0,-999.0,-999,-99.99,,,-99.99,,2013-06-11 04:10:00,
2013-06-11 00:16:00,58.8,-99.9,28.81,North,-999,-999.0,-999.0,-999,-99.99,,,-99.99,,2013-06-11 04:16:00,
2013-06-11 00:22:00,58.7,-99.9,28.81,North,-999,-999.0,-999.0,-999,-99.99,,,-99.99,,2013-06-11 04:22:00,
2013-06-11 00:24:00,58.9,-99.9,28.78,North,-999,-999.0,-999.0,-999,-99.99,,,-99.99,,2013-06-11 04:24:00,
2013-06-11 00:30:00,58.8,-99.9,28.78,North,-999,-999.0,-999.0,-999,-99.99,,,-99.99,,2013-06-11 04:30:00,
2013-06-11 00:36:00,58.8,-99.9,28.78,North,-999,-999.0,-999.0,-999,-99.99,,,-99.99,,2013-06-11 04:36:00,
2013-06-11 00:42:00,58.7,-99.9,28.78,North,-999,-999.0,-999.0,-999,-99.99,,,-99.99,,2013-06-11 04:42:00,
2013-06-11 00:48:00,58.9,-99.9,28.75,North,-999,-999.0,-999.0,-999,-99.99,,,-99.99,,2013-06-11 04:48:00,
2013-06-11 00:54:00,58.6,-99.9,28.75,North,-999,-999.0,-999.0,-999,-99.99,,,-99.99,,2013-06-11 04:54:00,
2013-06-11 00:59:00,57.7,-99.9,28.56,North,-999,-999.0,-999.0,-999,-99.99,,,-99.99,,2013-06-11 04:59:00,
2013-06-11 01:00:00,58.7,-99.9,28.78,North,-999,-999.0,-999.0,-999,-99.99,,,-99.99,,2013-06-11 05:00:00,
2013-06-11 01:06:00,58.8,-99.9,28.78,North,-999,-999.0,-999.0,-999,-99.99,,,-99.99,,2013-06-11 05:06:00,
2013-06-11 01:12:00,58.7,-99.9,28.78,North,-999,-999.0,-999.0,-999,-99.99,,,-99.99,,2013-06-11 05:12:00,
2013-06-11 01:18:00,58.4,-99.9,28.75,North,-999,-999.0,-999.0,-999,-99.99,,,-99.99,,2013-06-11 05:18:00,
2013-06-11 01:24:00,58.1,-99.9,28.75,North,-999,-999.0,-999.0,-999,-99.99,,,-99.99,,2013-06-11 05:24:00,
2013-06-11 01:30:00,58.1,-99.9,28.75,North,-999,-999.0,-999.0,-999,-99.99,,,-99.99,,2013-06-11 05:30:00,
2013-06-11 01:36:00,58.2,-99.9,28.75,North,-999,-999.0,-999.0,-999,-99.99,,,-99.99,,2013-06-11 05:36:00,
2013-06-11 01:42:00,58.2,-99.9,28.75,North,-999,-999.0,-999.0,-999,-99.99,,,-99.99,,2013-06-11 05:42:00,
2013-06-11 01:48:00,58.1,-99.9,28.75,North,-999,-999.0,-999.0,-999,-99.99,,,-99.99,,2013-06-11 05:48:00,
2013-06-11 01:54:00,58.1,-99.9,28.75,North,-999,-999.0,-999.0,-999,-99.99,,,-99.99,,2013-06-11 05:54:00,
2013-06-11 02:00:00,57.9,-99.9,28.75,North,-999,-999.0,-999.0,-999,-99.99,,,-99.99,,2013-06-11 06:00:00,
2013-06-11 02:06:00,57.9,-99.9,28.72,North,-999,-999.0,-999.0,-999,-99.99,,,-99.99,,2013-06-11 06:06:00,
2013-06-11 02:12:00,58.0,-99.9,28.75,North,-999,-999.0,-999.0,-999,-99.99,,,-99.99,,2013-06-11 06:12:00,
2013-06-11 02:18:00,57.9,-99.9,28.72,North,-999,-999.0,-999.0,-999,-99.99,,,-99.99,,2013-06-11 06:18:00,
2013-06-11 02:24:00,57.8,-99.9,28.72,North,-999,-999.0,-999.0,-999,-99.99,,,-99.99,,2013-06-11 06:24:00,
2013-06-11 02:30:00,57.7,-99.9,28.72,North,-999,-999.0,-999.0,-999,-99.99,,,-99.99,,2013-06-11 06:30:00,
2013-06-11 02:36:00,57.6,-99.9,28.72,North,-999,-999.0,-999.0,-999,-99.99,,,-99.99,,2013-06-11 06:36:00,
2013-06-11 02:42:00,57.6,-99.9,28.72,North,-999,-999.0,-999.0,-999,-99.99,,,-99.99,,2013-06-11 06:42:00,
2013-06-11 02:48:00,57.8,-99.9,28.72,North,-999,-999.0,-999.0,-999,-99.99,,,-99.99,,2013-06-11 06:48:00,
2013-06-11 02:54:00,57.6,-99.9,28.72,North,-999,-999.0,-999.0,-999,-99.99,,,-99.99,,2013-06-11 06:54:00,
2013-06-11 03:00:00,57.4,-99.9,28.72,North,-999,-999.0,-999.0,-999,-99.99,,,-99.99,,2013-06-11 07:00:00,
2013-06-11 03:06:00,57.4,-99.9,28.72,North,-999,-999.0,-999.0,-999,-99.99,,,-99.99,,2013-06-11 07:06:00,
2013-06-11 03:12:00,57.5,-99.9,28.72,North,-999,-999.0,-999.0,-999,-99.99,,,-99.99,,2013-06-11 07:12:00,
2013-06-11 03:18:00,57.6,-99.9,28.72,North,-999,-999.0,-999.0,-999,-99.99,,,-99.99,,2013-06-11 07:18:00,
2013-06-11 03:24:00,57.9,-99.9,28.68,North,-999,-999.0,-999.0,-999,-99.99,,,-99.99,,2013-06-11 07:24:00,
2013-06-11 03:30:00,57.6,-99.9,28.68,North,-999,-999.0,-999.0,-999,-99.99,,,-99.99,,2013-06-11 07:30:00,
2013-06-11 03:36:00,57.6,-99.9,28.68,North,-999,-999.0,-999.0,-999,-99.99,,,-99.99,,2013-06-11 07:36:00,
2013-06-11 03:42:00,57.6,-99.9,28.72,North,-999,-999.0,-999.0,-999,-99.99,,,-99.99,,2013-06-11 07:42:00,
2013-06-11 03:48:00,57.5,-99.9,28.68,North,-999,-999.0,-999.0,-999,-99.99,,,-99.99,,2013-06-11 07:48:00,
2013-06-11 03:54:00,57.5,-99.9,28.68,North,-999,-999.0,-999.0,-999,-99.99,,,-99.99,,2013-06-11 07:54:00,
2013-06-11 04:00:00,57.5,-99.9,28.68,North,-999,-999.0,-999.0,-999,-99.99,,,-99.99,,2013-06-11 08:00:00,
2013-06-11 04:06:00,57.5,-99.9,28.68,North,-999,-999.0,-999.0,-999,-99.99,,,-99.99,,2013-06-11 08:06:00,
2013-06-11 04:12:00,57.6,-99.9,28.68,North,-999,-999.0,-999.0,-999,-99.99,,,-99.99,,2013-06-11 08:12:00,
2013-06-11 04:18:00,57.7,-99.9,28.68,North,-999,-999.0,-999.0,-999,-99.99,,,-99.99,,2013-06-11 08:18:00,
2013-06-11 04:24:00,57.3,-99.9,28.68,North,-999,-999.0,-999.0,-999,-99.99,,,-99.99,,2013-06-11 08:24:00,
2013-06-11 04:30:00,57.2,-99.9,28.68,North,-999,-999.0,-999.0,-999,-99.99,,,-99.99,,2013-06-11 08:30:00,
2013-06-11 04:36:00,57.2,-99.9,28.68,North,-999,-999.0,-999.0,-999,-99.99,,,-99.99,,2013-06-11 08:36:00,
2013-06-11 04:42:00,57.3,-99.9,28.68,North,-999,-999.0,-999.0,-999,-99.99,,,-99.99,,2013-06-11 08:42:00,
2013-06-11 04:48:00,57.3,-99.9,28.68,North,-999,-999.0,-999.0,-999,-99.99,,,-99.99,,2013-06-11 08:48:00,
2013-06-11 04:54:00,57.2,-99.9,28.65,North,-999,-999.0,-999.0,-999,-99.99,,,-99.99,,2013-06-11 08:54:00,
2013-06-11 05:00:00,57.1,-99.9,28.65,North,-999,-999.0,-999.0,-999,-99.99,,,-99.99,,2013-06-11 09:00:00,
2013-06-11 05:06:00,57.0,-99.9,28.65,North,-999,-999.0,-999.0,-999,-99.99,,,-99.99,,2013-06-11 09:06:00,
2013-06-11 05:12:00,56.8,-99.9,28.65,North,-999,-999.0,-999.0,-999,-99.99,,,-99.99,,2013-06-11 09:12:00,
2013-06-11 05:18:00,56.8,-99.9,28.65,North,-999,-999.0,-999.0,-999,-99.99,,,-99.99,,2013-06-11 09:18:00,
2013-06-11 05:24:00,57.0,-99.9,28.65,North,-999,-999.0,-999.0,-999,-99.99,,,-99.99,,2013-06-11 09:24:00,
2013-06-11 05:30:00,57.2,-99.9,28.65,North,-999,-999.0,-999.0,-999,-99.99,,,-99.99,,2013-06-11 09:30:00,
2013-06-11 05:36:00,57.2,-99.9,28.65,North,-999,-999.0,-999.0,-999,-99.99,,,-99.99,,2013-06-11 09:36:00,
2013-06-11 05:42:00,57.3,-99.9,28.65,North,-999,-999.0,-999.0,-999,-99.99,,,-99.99,,2013-06-11 09:42:00,
2013-06-11 05:48:00,57.2,-99.9,28.65,North,-999,-999.0,-999.0,-999,-99.99,,,-99.99,,2013-06-11 09:48:00,
2013-06-11 05:54:00,57.1,-99.9,28.65,North,-999,-999.0,-999.0,-999,-99.99,,,-99.99,,2013-06-11 09:54:00,
2013-06-11 06:00:00,57.0,-99.9,28.65,North,-999,-999.0,-999.0,-999,-99.99,,,-99.99,,2013-06-11 10:00:00,
2013-06-11 06:06:00,57.1,-99.9,28.65,North,-999,-999.0,-999.0,-999,-99.99,,,-99.99,,2013-06-11 10:06:00,
2013-06-11 06:12:00,57.1,-99.9,28.62,North,-999,-999.0,-999.0,-999,-99.99,,,-99.99,,2013-06-11 10:12:00,
2013-06-11 06:18:00,57.1,-99.9,28.62,North,-999,-999.0,-999.0,-999,-99.99,,,-99.99,,2013-06-11 10:18:00,
2013-06-11 06:24:00,57.1,-99.9,28.65,North,-999,-999.0,-999.0,-999,-99.99,,,-99.99,,2013-06-11 10:24:00,
2013-06-11 06:30:00,57.0,-99.9,28.65,North,-999,-999.0,-999.0,-999,-99.99,,,-99.99,,2013-06-11 10:30:00,
2013-06-11 06:36:00,56.9,-99.9,28.65,North,-999,-999.0,-999.0,-999,-99.99,,,-99.99,,2013-06-11 10:36:00,
2013-06-11 06:42:00,56.9,-99.9,28.65,North,-999,-999.0,-999.0,-999,-99.99,,,-99.99,,2013-06-11 10:42:00,
2013-06-11 06:48:00,56.8,-99.9,28.65,North,-999,-999.0,-999.0,-999,-99.99,,,-99.99,,2013-06-11 10:48:00,
2013-06-11 06:54:00,56.7,-99.9,28.65,North,-999,-999.0,-999.0,-999,-99.99,,,-99.99,,2013-06-11 10:54:00,
2013-06-11 07:00:00,56.7,-99.9,28.68,North,-999,-999.0,-999.0,-999,-99.99,,,-99.99,,2013-06-11 11:00:00,
2013-06-11 07:06:00,56.8,-99.9,28.68,North,-999,-999.0,-999.0,-999,-99.99,,,-99.99,,2013-06-11 11:06:00,
2013-06-11 07:12:00,57.0,-99.9,28.65,North,-999,-999.0,-999.0,-999,-99.99,,,-99.99,,2013-06-11 11:12:00,
2013-06-11 07:18:00,56.9,-99.9,28.65,North,-999,-999.0,-999.0,-999,-99.99,,,-99.99,,2013-06-11 11:18:00,
2013-06-11 07:24:00,56.8,-99.9,28.65,North,-999,-999.0,-999.0,-999,-99.99,,,-99.99,,2013-06-11 11:24:00,
2013-06-11 07:30:00,57.0,-99.9,28.65,North,-999,-999.0,-999.0,-999,-99.99,,,-99.99,,2013-06-11 11:30:00,
2013-06-11 07:36:00,57.3,-99.9,28.65,North,-999,-999.0,-999.0,-999,-99.99,,,-99.99,,2013-06-11 11:36:00,
2013-06-11 07:42:00,57.1,-99.9,28.65,North,-999,-999.0,-999.0,-999,-99.99,,,-99.99,,2013-06-11 11:42:00,
2013-06-11 07:48:00,57.1,-99.9,28.65,North,-999,-999.0,-999.0,-999,-99.99,,,-99.99,,2013-06-11 11:48:00,
2013-06-11 07:54:00,57.2,-99.9,28.65,North,-999,-999.0,-999.0,-999,-99.99,,,-99.99,,2013-06-11 11:54:00,
2013-06-11 08:00:00,57.3,-99.9,28.65,North,-999,-999.0,-999.0,-999,-99.99,,,-99.99,,2013-06-11 12:00:00,
2013-06-11 08:06:00,57.4,-99.9,28.65,North,-999,-999.0,-999.0,-999,-99.99,,,-99.99,,2013-06-11 12:06:00,
2013-06-11 08:12:00,57.3,-99.9,28.65,North,-999,-999.0,-999.0,-999,-99.99,,,-99.99,,2013-06-11 12:12:00,
2013-06-11 08:18:00,57.6,-99.9,28.65,North,-999,-999.0,-999.0,-999,-99.99,,,-99.99,,2013-06-11 12:18:00,
2013-06-11 08:24:00,57.8,-99.9,28.65,North,-999,-999.0,-999.0,-999,-99.99,,,-99.99,,2013-06-11 12:24:00,
2013-06-11 08:30:00,58.0,-99.9,28.65,North,-999,-999.0,-999.0,-999,-99.99,,,-99.99,,2013-06-11 12:30:00,
2013-06-11 08:36:00,58.1,-99.9,28.65,North,-999,-999.0,-999.0,-999,-99.99,,,-99.99,,2013-06-11 12:36:00,
2013-06-11 08:42:00,58.2,-99.9,28.65,North,-999,-999.0,-999.0,-999,-99.99,,,-99.99,,2013-06-11 12:42:00,
2013-06-11 08:48:00,58.3,-99.9,28.65,North,-999,-999.0,-999.0,-999,-99.99,,,-99.99,,2013-06-11 12:48:00,
2013-06-11 08:54:00,58.4,-99.9,28.62,North,-999,-999.0,-999.0,-999,-99.99,,,-99.99,,2013-06-11 12:54:00,
2013-06-11 09:00:00,58.5,-99.9,28.65,North,-999,-999.0,-999.0,-999,-99.99,,,-99.99,,2013-06-11 13:00:00,
2013-06-11 09:06:00,58.6,-99.9,28.65,North,-999,-999.0,-999.0,-999,-99.99,,,-99.99,,2013-06-11 13:06:00,
2013-06-11 09:12:00,58.5,-99.9,28.62,North,-999,-999.0,-999.0,-999,-99.99,,,-99.99,,2013-06-11 13:12:00,
2013-06-11 09:18:00,58.4,-99.9,28.65,North,-999,-999.0,-999.0,-999,-99.99,,,-99.99,,2013-06-11 13:18:00,
2013-06-11 09:24:00,58.6,-99.9,28.65,North,-999,-999.0,-999.0,-999,-99.99,,,-99.99,,2013-06-11 13:24:00,
2013-06-11 09:30:00,58.3,-99.9,28.62,North,-999,-999.0,-999.0,-999,-99.99,,,-99.99,,2013-06-11 13:30:00,
2013-06-11 09:36:00,58.1,-99.9,28.65,North,-999,-999.0,-999.0,-999,-99.99,,,-99.99,,2013-06-11 13:36:00,
2013-06-11 09:42:00,58.3,-99.9,28.62,North,-999,-999.0,-999.0,-999,-99.99,,,-99.99,,2013-06-11 13:42:00,
2013-06-11 09:48:00,58.5,-99.9,28.62,North,-999,-999.0,-999.0,-999,-99.99,,,-99.99,,2013-06-11 13:48:00,
2013-06-11 09:54:00,58.2,-99.9,28.65,North,-999,-999.0,-999.0,-999,-99.99,,,-99.99,,2013-06-11 13:54:00,
2013-06-11 10:00:00,58.0,-99.9,28.62,North,-999,-999.0,-999.0,-999,-99.99,,,-99.99,,2013-06-11 14:00:00,
2013-06-11 10:06:00,58.4,-99.9,28.62,North,-999,-999.0,-999.0,-999,-99.99,,,-99.99,,2013-06-11 14:06:00,
2013-06-11 10:12:00,58.7,-99.9,28.62,North,-999,-999.0,-999.0,-999,-99.99,,,-99.99,,2013-06-11 14:12:00,
2013-06-11 10:18:00,58.6,-99.9,28.62,North,-999,-999.0,-999.0,-999,-99.99,,,-99.99,,2013-06-11 14:18:00,
2013-06-11 10:24:00,58.8,-99.9,28.62,North,-999,-999.0,-999.0,-999,-99.99,,,-99.99,,2013-06-11 14:24:00,
2013-06-11 10:30:00,59.0,-99.9,28.62,North,-999,-999.0,-999.0,-999,-99.99,,,-99.99,,2013-06-11 14:30:00,
2013-06-11 10:36:00,58.9,-99.9,28.62,North,-999,-999.0,-999.0,-999,-99.99,,,-99.99,,2013-06-11 14:36:00,
2013-06-11 10:42:00,59.1,-99.9,28.62,North,-999,-999.0,-999.0,-999,-99.99,,,-99.99,,2013-06-11 14:42:00,
2013-06-11 10:48:00,59.1,-99.9,28.62,North,-999,-999.0,-999.0,-999,-99.99,,,-99.99,,2013-06-11 14:48:00,
2013-06-11 10:54:00,59.1,-99.9,28.62,North,-999,-999.0,-999.0,-999,-99.99,,,-99.99,,2013-06-11 14:54:00,
2013-06-11 11:00:00,59.0,-99.9,28.62,North,-999,-999.0,-999.0,-999,-99.99,,,-99.99,,2013-06-11 15:00:00,
2013-06-11 11:06:00,59.0,-99.9,28.62,North,-999,-999.0,-999.0,-999,-99.99,,,-99.99,,2013-06-11 15:06:00,
2013-06-11 11:12:00,59.2,-99.9,28.62,North,-999,-999.0,-999.0,-999,-99.99,,,-99.99,,2013-06-11 15:12:00,
2013-06-11 11:18:00,59.3,-99.9,28.59,North,-999,-999.0,-999.0,-999,-99.99,,,-99.99,,2013-06-11 15:18:00,
2013-06-11 11:24:00,59.1,-99.9,28.59,North,-999,-999.0,-999.0,-999,-99.99,,,-99.99,,2013-06-11 15:24:00,
2013-06-11 11:30:00,59.2,-99.9,28.62,North,-999,-999.0,-999.0,-999,-99.99,,,-99.99,,2013-06-11 15:30:00,
2013-06-11 11:36:00,59.3,-99.9,28.62,North,-999,-999.0,-999.0,-999,-99.99,,,-99.99,,2013-06-11 15:36:00,
2013-06-11 11:42:00,59.8,-99.9,28.62,North,-999,-999.0,-999.0,-999,-99.99,,,-99.99,,2013-06-11 15:42:00,
2013-06-11 11:48:00,59.9,-99.9,28.59,North,-999,-999.0,-999.0,-999,-99.99,,,-99.99,,2013-06-11 15:48:00,
2013-06-11 11:54:00,59.9,-99.9,28.59,North,-999,-999.0,-999.0,-999,-99.99,,,-99.99,,2013-06-11 15:54:00,
2013-06-11 12:00:00,60.1,-99.9,28.62,North,-999,-999.0,-999.0,-999,-99.99,,,-99.99,,2013-06-11 16:00:00,
2013-06-11 12:06:00,60.1,-99.9,28.59,North,-999,-999.0,-999.0,-999,-99.99,,,-99.99,,2013-06-11 16:06:00,
2013-06-11 12:12:00,60.2,-99.9,28.59,North,-999,-999.0,-999.0,-999,-99.99,,,-99.99,,2013-06-11 16:12:00,
2013-06-11 12:18:00,61.1,-99.9,28.59,North,-999,-999.0,-999.0,-999,-99.99,,,-99.99,,2013-06-11 16:18:00,
2013-06-11 12:24:00,61.7,-99.9,28.59,North,-999,-999.0,-999.0,-999,-99.99,,,-99.99,,2013-06-11 16:24:00,
2013-06-11 12:30:00,61.8,-99.9,28.59,North,-999,-999.0,-999.0,-999,-99.99,,,-99.99,,2013-06-11 16:30:00,
2013-06-11 12:36:00,61.9,-99.9,28.59,North,-999,-999.0,-999.0,-999,-99.99,,,-99.99,,2013-06-11 16:36:00,
2013-06-11 12:42:00,61.9,-99.9,28.59,North,-999,-999.0,-999.0,-999,-99.99,,,-99.99,,2013-06-11 16:42:00,
2013-06-11 12:48:00,61.7,-99.9,28.59,North,-999,-999.0,-999.0,-999,-99.99,,,-99.99,,2013-06-11 16:48:00,
2013-06-11 12:54:00,61.3,-99.9,28.59,North,-999,-999.0,-999.0,-999,-99.99,,,-99.99,,2013-06-11 16:54:00,
2013-06-11 13:00:00,61.0,-99.9,28.59,North,-999,-999.0,-999.0,-999,-99.99,,,-99.99,,2013-06-11 17:00:00,
2013-06-11 13:06:00,60.9,-99.9,28.59,North,-999,-999.0,-999.0,-999,-99.99,,,-99.99,,2013-06-11 17:06:00,
2013-06-11 13:12:00,61.0,-99.9,28.59,North,-999,-999.0,-999.0,-999,-99.99,,,-99.99,,2013-06-11 17:12:00,
2013-06-11 13:18:00,61.5,-99.9,28.59,North,-999,-999.0,-999.0,-999,-99.99,,,-99.99,,2013-06-11 17:18:00,
2013-06-11 13:24:00,62.8,-99.9,28.59,North,-999,-999.0,-999.0,-999,-99.99,,,-99.99,,2013-06-11 17:24:00,
2013-06-11 13:30:00,64.4,-99.9,28.56,North,-999,-999.0,-999.0,-999,-99.99,,,-99.99,,2013-06-11 17:30:00,
2013-06-11 13:36:00,65.3,-99.9,28.56,North,-999,-999.0,-999.0,-999,-99.99,,,-99.99,,2013-06-11 17:36:00,
2013-06-11 13:42:00,65.8,-99.9,28.56,North,-999,-999.0,-999.0,-999,-99.99,,,-99.99,,2013-06-11 17:42:00,
2013-06-11 13:48:00,66.2,-99.9,28.59,North,-999,-999.0,-999.0,-999,-99.99,,,-99.99,,2013-06-11 17:48:00,
2013-06-11 13:54:00,66.2,-99.9,28.56,North,-999,-999.0,-999.0,-999,-99.99,,,-99.99,,2013-06-11 17:54:00,
2013-06-11 14:00:00,65.8,-99.9,28.56,North,-999,-999.0,-999.0,-999,-99.99,,,-99.99,,2013-06-11 18:00:00,
2013-06-11 14:06:00,65.4,-99.9,28.56,North,-999,-999.0,-999.0,-999,-99.99,,,-99.99,,2013-06-11 18:06:00,
2013-06-11 14:12:00,64.6,-99.9,28.56,North,-999,-999.0,-999.0,-999,-99.99,,,-99.99,,2013-06-11 18:12:00,
2013-06-11 14:18:00,64.0,-99.9,28.52,North,-999,-999.0,-999.0,-999,-99.99,,,-99.99,,2013-06-11 18:18:00,
2013-06-11 14:24:00,63.5,-99.9,28.56,North,-999,-999.0,-999.0,-999,-99.99,,,-99.99,,2013-06-11 18:24:00,
2013-06-11 14:30:00,62.9,-99.9,28.56,North,-999,-999.0,-999.0,-999,-99.99,,,-99.99,,2013-06-11 18:30:00,
2013-06-11 14:36:00,62.4,-99.9,28.56,North,-999,-999.0,-999.0,-999,-99.99,,,-99.99,,2013-06-11 18:36:00,
2013-06-11 14:42:00,61.9,-99.9,28.52,North,-999,-999.0,-999.0,-999,-99.99,,,-99.99,,2013-06-11 18:42:00,
2013-06-11 14:48:00,61.7,-99.9,28.52,North,-999,-999.0,-999.0,-999,-99.99,,,-99.99,,2013-06-11 18:48:00,
2013-06-11 14:54:00,61.6,-99.9,28.52,North,-999,-999.0,-999.0,-999,-99.99,,,-99.99,,2013-06-11 18:54:00,
2013-06-11 15:00:00,61.5,-99.9,28.52,North,-999,-999.0,-999.0,-999,-99.99,,,-99.99,,2013-06-11 19:00:00,
2013-06-11 15:06:00,61.3,-99.9,28.52,North,-999,-999.0,-999.0,-999,-99.99,,,-99.99,,2013-06-11 19:06:00,
2013-06-11 15:12:00,61.2,-99.9,28.52,North,-999,-999.0,-999.0,-999,-99.99,,,-99.99,,2013-06-11 19:12:00,
2013-06-11 15:18:00,61.0,-99.9,28.52,North,-999,-999.0,-999.0,-999,-99.99,,,-99.99,,2013-06-11 19:18:00,
2013-06-11 15:24:00,61.0,-99.9,28.52,North,-999,-999.0,-999.0,-999,-99.99,,,-99.99,,2013-06-11 19:24:00,
2013-06-11 15:30:00,60.8,-99.9,28.52,North,-999,-999.0,-999.0,-999,-99.99,,,-99.99,,2013-06-11 19:30:00,
2013-06-11 15:36:00,60.8,-99.9,28.52,North,-999,-999.0,-999.0,-999,-99.99,,,-99.99,,2013-06-11 19:36:00,
2013-06-11 15:42:00,60.8,-99.9,28.52,North,-999,-999.0,-999.0,-999,-99.99,,,-99.99,,2013-06-11 19:42:00,
2013-06-11 15:48:00,60.4,-99.9,28.49,North,-999,-999.0,-999.0,-999,-99.99,,,-99.99,,2013-06-11 19:48:00,
2013-06-11 15:54:00,60.3,-99.9,28.49,North,-999,-999.0,-999.0,-999,-99.99,,,-99.99,,2013-06-11 19:54:00,
2013-06-11 16:00:00,60.1,-99.9,28.52,North,-999,-999.0,-999.0,-999,-99.99,,,-99.99,,2013-06-11 20:00:00,
2013-06-11 16:06:00,59.9,-99.9,28.52,North,-999,-999.0,-999.0,-999,-99.99,,,-99.99,,2013-06-11 20:06:00,
2013-06-11 16:12:00,59.8,-99.9,28.49,North,-999,-999.0,-999.0,-999,-99.99,,,-99.99,,2013-06-11 20:12:00,
2013-06-11 16:18:00,59.2,-99.9,28.49,North,-999,-999.0,-999.0,-999,-99.99,,,-99.99,,2013-06-11 20:18:00,
2013-06-11 16:24:00,59.1,-99.9,28.49,North,-999,-999.0,-999.0,-999,-99.99,,,-99.99,,2013-06-11 20:24:00,
2013-06-11 16:30:00,59.1,-99.9,28.49,North,-999,-999.0,-999.0,-999,-99.99,,,-99.99,,2013-06-11 20:30:00,
2013-06-11 16:36:00,58.9,-99.9,28.49,North,-999,-999.0,-999.0,-999,-99.99,,,-99.99,,2013-06-11 20:36:00,
2013-06-11 16:42:00,58.9,-99.9,28.52,North,-999,-999.0,-999.0,-999,-99.99,,,-99.99,,2013-06-11 20:42:00,
2013-06-11 16:48:00,58.7,-99.9,28.52,North,-999,-999.0,-999.0,-999,-99.99,,,-99.99,,2013-06-11 20:48:00,
2013-06-11 16:54:00,58.6,-99.9,28.52,North,-999,-999.0,-999.0,-999,-99.99,,,-99.99,,2013-06-11 20:54:00,
2013-06-11 17:00:00,58.7,-99.9,28.52,North,-999,-999.0,-999.0,-999,-99.99,,,-99.99,,2013-06-11 21:00:00,
2013-06-11 17:06:00,58.6,-99.9,28.52,North,-999,-999.0,-999.0,-999,-99.99,,,-99.99,,2013-06-11 21:06:00,
2013-06-11 17:12:00,58.6,-99.9,28.49,North,-999,-999.0,-999.0,-999,-99.99,,,-99.99,,2013-06-11 21:12:00,
2013-06-11 17:18:00,58.7,-99.9,28.52,North,-999,-999.0,-999.0,-999,-99.99,,,-99.99,,2013-06-11 21:18:00,
2013-06-11 17:24:00,58.8,-99.9,28.52,North,-999,-999.0,-999.0,-999,-99.99,,,-99.99,,2013-06-11 21:24:00,
2013-06-11 17:30:00,58.9,-99.9,28.49,North,-999,-999.0,-999.0,-999,-99.99,,,-99.99,,2013-06-11 21:30:00,
2013-06-11 17:36:00,58.9,-99.9,28.52,North,-999,-999.0,-999.0,-999,-99.99,,,-99.99,,2013-06-11 21:36:00,
2013-06-11 17:42:00,58.9,-99.9,28.52,North,-999,-999.0,-999.0,-999,-99.99,,,-99.99,,2013-06-11 21:42:00,
2013-06-11 17:48:00,58.7,-99.9,28.52,North,-999,-999.0,-999.0,-999,-99.99,,,-99.99,,2013-06-11 21:48:00,
2013-06-11 17:54:00,58.9,-99.9,28.52,North,-999,-999.0,-999.0,-999,-99.99,,,-99.99,,2013-06-11 21:54:00,
2013-06-11 18:00:00,58.6,-99.9,28.52,North,-999,-999.0,-999.0,-999,-99.99,,,-99.99,,2013-06-11 22:00:00,
2013-06-11 18:06:00,58.7,-99.9,28.49,North,-999,-999.0,-999.0,-999,-99.99,,,-99.99,,2013-06-11 22:06:00,
2013-06-11 18:12:00,58.6,-99.9,28.49,North,-999,-999.0,-999.0,-999,-99.99,,,-99.99,,2013-06-11 22:12:00,
2013-06-11 18:18:00,58.4,-99.9,28.52,North,-999,-999.0,-999.0,-999,-99.99,,,-99.99,,2013-06-11 22:18:00,
2013-06-11 18:24:00,58.8,-99.9,28.49,North,-999,-999.0,-999.0,-999,-99.99,,,-99.99,,2013-06-11 22:24:00,
2013-06-11 18:30:00,59.0,-99.9,28.52,North,-999,-999.0,-999.0,-999,-99.99,,,-99.99,,2013-06-11 22:30:00,
2013-06-11 18:36:00,58.9,-99.9,28.52,North,-999,-999.0,-999.0,-999,-99.99,,,-99.99,,2013-06-11 22:36:00,
2013-06-11 18:42:00,58.9,-99.9,28.49,North,-999,-999.0,-999.0,-999,-99.99,,,-99.99,,2013-06-11 22:42:00,
2013-06-11 18:48:00,59.1,-99.9,28.49,North,-999,-999.0,-999.0,-999,-99.99,,,-99.99,,2013-06-11 22:48:00,
2013-06-11 18:54:00,59.5,-99.9,28.49,North,-999,-999.0,-999.0,-999,-99.99,,,-99.99,,2013-06-11 22:54:00,
2013-06-11 19:00:00,59.9,-99.9,28.49,North,-999,-999.0,-999.0,-999,-99.99,,,-99.99,,2013-06-11 23:00:00,
2013-06-11 19:06:00,60.1,-99.9,28.52,North,-999,-999.0,-999.0,-999,-99.99,,,-99.99,,2013-06-11 23:06:00,
2013-06-11 19:12:00,60.1,-99.9,28.52,North,-999,-999.0,-999.0,-999,-99.99,,,-99.99,,2013-06-11 23:12:00,
2013-06-11 19:18:00,60.3,-99.9,28.52,North,-999,-999.0,-999.0,-999,-99.99,,,-99.99,,2013-06-11 23:18:00,
2013-06-11 19:24:00,60.6,-99.9,28.52,North,-999,-999.0,-999.0,-999,-99.99,,,-99.99,,2013-06-11 23:24:00,
2013-06-11 19:30:00,60.5,-99.9,28.49,North,-999,-999.0,-999.0,-999,-99.99,,,-99.99,,2013-06-11 23:30:00,
2013-06-11 19:36:00,60.3,-99.9,28.49,North,-999,-999.0,-999.0,-999,-99.99,,,-99.99,,2013-06-11 23:36:00,
2013-06-11 19:42:00,60.3,-99.9,28.52,North,-999,-999.0,-999.0,-999,-99.99,,,-99.99,,2013-06-11 23:42:00,
2013-06-11 19:48:00,60.2,-99.9,28.52,North,-999,-999.0,-999.0,-999,-99.99,,,-99.99,,2013-06-11 23:48:00,
2013-06-11 19:54:00,60.3,-99.9,28.52,North,-999,-999.0,-999.0,-999,-99.99,,,-99.99,,2013-06-11 23:54:00,
2013-06-11 20:01:00,62.9,-99.9,28.75,North,-999,-999.0,-999.0,-999,-99.99,,,-99.99,,2013-06-12 00:01:00,
2013-06-11 20:03:00,62.8,-99.9,28.78,North,-999,-999.0,-999.0,-999,-99.99,,,-99.99,,2013-06-12 00:03:00,
2013-06-11 20:05:00,62.8,-99.9,28.75,North,-999,-999.0,-999.0,-999,-99.99,,,-99.99,,2013-06-12 00:05:00,
2013-06-11 20:07:00,62.6,-99.9,28.75,North,-999,-999.0,-999.0,-999,-99.99,,,-99.99,,2013-06-12 00:07:00,
2013-06-11 20:09:00,62.5,-99.9,28.75,North,-999,-999.0,-999.0,-999,-99.99,,,-99.99,,2013-06-12 00:09:00,
2013-06-11 20:11:00,62.3,-99.9,28.75,North,-999,-999.0,-999.0,-999,-99.99,,,-99.99,,2013-06-12 00:11:00,
2013-06-11 20:13:00,62.2,-99.9,28.75,North,-999,-999.0,-999.0,-999,-99.99,,,-99.99,,2013-06-12 00:13:00,
2013-06-11 20:15:00,61.9,-99.9,28.75,North,-999,-999.0,-999.0,-999,-99.99,,,-99.99,,2013-06-12 00:15:00,
2013-06-11 20:17:00,61.7,-99.9,28.78,North,-999,-999.0,-999.0,-999,-99.99,,,-99.99,,2013-06-12 00:17:00,
2013-06-11 20:19:00,61.5,-99.9,28.75,North,-999,-999.0,-999.0,-999,-99.99,,,-99.99,,2013-06-12 00:19:00,
2013-06-11 20:21:00,61.2,-99.9,28.75,North,-999,-999.0,-999.0,-999,-99.99,,,-99.99,,2013-06-12 00:21:00,
2013-06-11 20:23:00,60.9,-99.9,28.75,North,-999,-999.0,-999.0,-999,-99.99,,,-99.99,,2013-06-12 00:23:00,
2013-06-11 20:25:00,60.7,-99.9,28.75,North,-999,-999.0,-999.0,-999,-99.99,,,-99.99,,2013-06-12 00:25:00,
2013-06-11 20:27:00,60.6,-99.9,28.75,North,-999,-999.0,-999.0,-999,-99.99,,,-99.99,,2013-06-12 00:27:00,
2013-06-11 20:29:00,60.5,-99.9,28.75,North,-999,-999.0,-999.0,-999,-99.99,,,-99.99,,2013-06-12 00:29:00,
2013-06-11 20:31:00,60.5,-99.9,28.75,North,-999,-999.0,-999.0,-999,-99.99,,,-99.99,,2013-06-12 00:31:00,
2013-06-11 20:33:00,60.5,-99.9,28.78,North,-999,-999.0,-999.0,-999,-99.99,,,-99.99,,2013-06-12 00:33:00,
2013-06-11 20:35:00,60.5,-99.9,28.75,North,-999,-999.0,-999.0,-999,-99.99,,,-99.99,,2013-06-12 00:35:00,
2013-06-11 20:37:00,60.4,-99.9,28.75,North,-999,-999.0,-999.0,-999,-99.99,,,-99.99,,2013-06-12 00:37:00,
2013-06-11 20:39:00,60.3,-99.9,28.75,North,-999,-999.0,-999.0,-999,-99.99,,,-99.99,,2013-06-12 00:39:00,
2013-06-11 20:41:00,60.2,-99.9,28.75,North,-999,-999.0,-999.0,-999,-99.99,,,-99.99,,2013-06-12 00:41:00,
2013-06-11 20:43:00,59.9,-99.9,28.75,North,-999,-999.0,-999.0,-999,-99.99,,,-99.99,,2013-06-12 00:43:00,
2013-06-11 20:45:00,59.7,-99.9,28.75,North,-999,-999.0,-999.0,-999,-99.99,,,-99.99,,2013-06-12 00:45:00,
2013-06-11 20:47:00,59.4,-99.9,28.75,North,-999,-999.0,-999.0,-999,-99.99,,,-99.99,,2013-06-12 00:47:00,
2013-06-11 20:49:00,59.1,-99.9,28.75,North,-999,-999.0,-999.0,-999,-99.99,,,-99.99,,2013-06-12 00:49:00,
2013-06-11 20:51:00,58.8,-99.9,28.75,North,-999,-999.0,-999.0,-999,-99.99,,,-99.99,,2013-06-12 00:51:00,
2013-06-11 20:53:00,58.5,-99.9,28.75,North,-999,-999.0,-999.0,-999,-99.99,,,-99.99,,2013-06-12 00:53:00,
2013-06-11 20:55:00,58.4,-99.9,28.75,North,-999,-999.0,-999.0,-999,-99.99,,,-99.99,,2013-06-12 00:55:00,
2013-06-11 20:57:00,58.2,-99.9,28.75,North,-999,-999.0,-999.0,-999,-99.99,,,-99.99,,2013-06-12 00:57:00,
2013-06-11 20:59:00,63.1,-99.9,28.75,North,-999,-999.0,-999.0,-999,-99.99,,,-99.99,,2013-06-12 00:59:00,
2013-06-11 21:00:00,58.1,-99.9,28.75,North,-999,-999.0,-999.0,-999,-99.99,,,-99.99,,2013-06-12 01:00:00,
2013-06-11 21:04:00,55.8,-99.9,28.78,North,-999,-999.0,-999.0,-999,-99.99,,,-99.99,,2013-06-12 01:04:00,
2013-06-11 21:09:00,57.5,-99.9,28.75,North,-999,-999.0,-999.0,-999,-99.99,,,-99.99,,2013-06-12 01:09:00,
2013-06-11 21:11:00,57.4,-99.9,28.75,North,-999,-999.0,-999.0,-999,-99.99,,,-99.99,,2013-06-12 01:11:00,
2013-06-11 21:13:00,57.2,-99.9,28.78,North,-999,-999.0,-999.0,-999,-99.99,,,-99.99,,2013-06-12 01:13:00,
2013-06-11 21:15:00,57.1,-99.9,28.75,North,-999,-999.0,-999.0,-999,-99.99,,,-99.99,,2013-06-12 01:15:00,
2013-06-11 21:17:00,57.1,-99.9,28.78,North,-999,-999.0,-999.0,-999,-99.99,,,-99.99,,2013-06-12 01:17:00,
2013-06-11 21:19:00,57.0,-99.9,28.75,North,-999,-999.0,-999.0,-999,-99.99,,,-99.99,,2013-06-12 01:19:00,
2013-06-11 21:21:00,56.8,-99.9,28.75,North,-999,-999.0,-999.0,-999,-99.99,,,-99.99,,2013-06-12 01:21:00,
2013-06-11 21:23:00,56.9,-99.9,28.75,North,-999,-999.0,-999.0,-999,-99.99,,,-99.99,,2013-06-12 01:23:00,
2013-06-11 21:25:00,56.9,-99.9,28.75,North,-999,-999.0,-999.0,-999,-99.99,,,-99.99,,2013-06-12 01:25:00,
2013-06-11 21:27:00,56.9,-99.9,28.75,North,-999,-999.0,-999.0,-999,-99.99,,,-99.99,,2013-06-12 01:27:00,
2013-06-11 21:29:00,56.9,-99.9,28.78,North,-999,-999.0,-999.0,-999,-99.99,,,-99.99,,2013-06-12 01:29:00,
2013-06-11 21:31:00,57.0,-99.9,28.75,North,-999,-999.0,-999.0,-999,-99.99,,,-99.99,,2013-06-12 01:31:00,
2013-06-11 21:33:00,56.9,-99.9,28.78,North,-999,-999.0,-999.0,-999,-99.99,,,-99.99,,2013-06-12 01:33:00,
2013-06-11 21:35:00,56.7,-99.9,28.75,North,-999,-999.0,-999.0,-999,-99.99,,,-99.99,,2013-06-12 01:35:00,
2013-06-11 21:37:00,56.5,-99.9,28.78,North,-999,-999.0,-999.0,-999,-99.99,,,-99.99,,2013-06-12 01:37:00,
2013-06-11 21:39:00,56.2,-99.9,28.75,North,-999,-999.0,-999.0,-999,-99.99,,,-99.99,,2013-06-12 01:39:00,
2013-06-11 21:41:00,56.0,-99.9,28.78,North,-999,-999.0,-999.0,-999,-99.99,,,-99.99,,2013-06-12 01:41:00,
2013-06-11 21:49:00,55.7,-99.9,28.78,North,-999,-999.0,-999.0,-999,-99.99,,,-99.99,,2013-06-12 01:49:00,
2013-06-11 21:51:00,55.7,-99.9,28.78,North,-999,-999.0,-999.0,-999,-99.99,,,-99.99,,2013-06-12 01:51:00,
2013-06-11 21:53:00,55.7,-99.9,28.75,North,-999,-999.0,-999.0,-999,-99.99,,,-99.99,,2013-06-12 01:53:00,
2013-06-11 21:55:00,55.7,-99.9,28.75,North,-999,-999.0,-999.0,-999,-99.99,,,-99.99,,2013-06-12 01:55:00,
2013-06-11 21:57:00,55.6,-99.9,28.78,North,-999,-999.0,-999.0,-999,-99.99,,,-99.99,,2013-06-12 01:57:00,
2013-06-11 21:59:00,58.2,-99.9,28.75,North,-999,-999.0,-999.0,-999,-99.99,,,-99.99,,2013-06-12 01:59:00,
2013-06-11 22:01:00,55.5,-99.9,28.78,North,-999,-999.0,-999.0,-999,-99.99,,,-99.99,,2013-06-12 02:01:00,
2013-06-11 22:02:00,54.5,-99.9,28.75,North,-999,-999.0,-999.0,-999,-99.99,,,-99.99,,2013-06-12 02:02:00,
2013-06-11 22:03:00,55.2,-99.9,28.78,North,-999,-999.0,-999.0,-999,-99.99,,,-99.99,,2013-06-12 02:03:00,
2013-06-11 22:05:00,55.1,-99.9,28.78,North,-999,-999.0,-999.0,-999,-99.99,,,-99.99,,2013-06-12 02:05:00,
2013-06-11 22:07:00,54.9,-99.9,28.78,North,-999,-999.0,-999.0,-999,-99.99,,,-99.99,,2013-06-12 02:07:00,
2013-06-11 22:09:00,54.7,-99.9,28.78,North,-999,-999.0,-999.0,-999,-99.99,,,-99.99,,2013-06-12 02:09:00,
2013-06-11 22:11:00,54.6,-99.9,28.78,North,-999,-999.0,-999.0,-999,-99.99,,,-99.99,,2013-06-12 02:11:00,
2013-06-11 22:13:00,54.7,-99.9,28.75,North,-999,-999.0,-999.0,-999,-99.99,,,-99.99,,2013-06-12 02:13:00,
2013-06-11 22:15:00,54.4,-99.9,28.75,North,-999,-999.0,-999.0,-999,-99.99,,,-99.99,,2013-06-12 02:15:00,
2013-06-11 22:17:00,54.4,-99.9,28.78,North,-999,-999.0,-999.0,-999,-99.99,,,-99.99,,2013-06-12 02:17:00,
2013-06-11 22:19:00,54.5,-99.9,28.78,North,-999,-999.0,-999.0,-999,-99.99,,,-99.99,,2013-06-12 02:19:00,
2013-06-11 22:21:00,54.5,-99.9,28.78,North,-999,-999.0,-999.0,-999,-99.99,,,-99.99,,2013-06-12 02:21:00,
2013-06-11 22:31:00,54.4,-99.9,28.78,North,-999,-999.0,-999.0,-999,-99.99,,,-99.99,,2013-06-12 02:31:00,
2013-06-11 22:33:00,54.3,-99.9,28.78,North,-999,-999.0,-999.0,-999,-99.99,,,-99.99,,2013-06-12 02:33:00,
2013-06-11 22:35:00,54.2,-99.9,28.78,North,-999,-999.0,-999.0,-999,-99.99,,,-99.99,,2013-06-12 02:35:00,
2013-06-11 22:37:00,54.2,-99.9,28.78,North,-999,-999.0,-999.0,-999,-99.99,,,-99.99,,2013-06-12 02:37:00,
2013-06-11 22:39:00,54.1,-99.9,28.78,North,-999,-999.0,-999.0,-999,-99.99,,,-99.99,,2013-06-12 02:39:00,
2013-06-11 22:41:00,54.2,-99.9,28.75,North,-999,-999.0,-999.0,-999,-99.99,,,-99.99,,2013-06-12 02:41:00,
2013-06-11 22:43:00,54.2,-99.9,28.78,North,-999,-999.0,-999.0,-999,-99.99,,,-99.99,,2013-06-12 02:43:00,
2013-06-11 22:45:00,54.2,-99.9,28.78,North,-999,-999.0,-999.0,-999,-99.99,,,-99.99,,2013-06-12 02:45:00,
2013-06-11 22:47:00,54.1,-99.9,28.78,North,-999,-999.0,-999.0,-999,-99.99,,,-99.99,,2013-06-12 02:47:00,
2013-06-11 22:49:00,54.1,-99.9,28.75,North,-999,-999.0,-999.0,-999,-99.99,,,-99.99,,2013-06-12 02:49:00,
2013-06-11 22:51:00,54.0,-99.9,28.75,North,-999,-999.0,-999.0,-999,-99.99,,,-99.99,,2013-06-12 02:51:00,
2013-06-11 22:53:00,54.0,-99.9,28.78,North,-999,-999.0,-999.0,-999,-99.99,,,-99.99,,2013-06-12 02:53:00,
2013-06-11 22:55:00,54.0,-99.9,28.75,North,-999,-999.0,-999.0,-999,-99.99,,,-99.99,,2013-06-12 02:55:00,
2013-06-11 22:57:00,54.0,-99.9,28.78,North,-999,-999.0,-999.0,-999,-99.99,,,-99.99,,2013-06-12 02:57:00,
2013-06-11 22:59:00,55.6,-99.9,28.78,North,-999,-999.0,-999.0,-999,-99.99,,,-99.99,,2013-06-12 02:59:00,
2013-06-11 23:00:00,54.0,-99.9,28.78,North,-999,-999.0,-999.0,-999,-99.99,,,-99.99,,2013-06-12 03:00:00,
2013-06-11 23:01:00,54.1,-99.9,28.78,North,-999,-999.0,-999.0,-999,-99.99,,,-99.99,,2013-06-12 03:01:00,
2013-06-11 23:04:00,53.6,-99.9,28.75,North,-999,-999.0,-999.0,-999,-99.99,,,-99.99,,2013-06-12 03:04:00,
2013-06-11 23:11:00,53.8,-99.9,28.78,North,-999,-999.0,-999.0,-999,-99.99,,,-99.99,,2013-06-12 03:11:00,
2013-06-11 23:13:00,53.8,-99.9,28.75,North,-999,-999.0,-999.0,-999,-99.99,,,-99.99,,2013-06-12 03:13:00,
2013-06-11 23:15:00,53.8,-99.9,28.78,North,-999,-999.0,-999.0,-999,-99.99,,,-99.99,,2013-06-12 03:15:00,
2013-06-11 23:17:00,53.6,-99.9,28.75,North,-999,-999.0,-999.0,-999,-99.99,,,-99.99,,2013-06-12 03:17:00,
2013-06-11 23:19:00,53.6,-99.9,28.78,North,-999,-999.0,-999.0,-999,-99.99,,,-99.99,,2013-06-12 03:19:00,
2013-06-11 23:21:00,53.7,-99.9,28.78,North,-999,-999.0,-999.0,-999,-99.99,,,-99.99,,2013-06-12 03:21:00,
2013-06-11 23:23:00,53.6,-99.9,28.75,North,-999,-999.0,-999.0,-999,-99.99,,,-99.99,,2013-06-12 03:23:00,
2013-06-11 23:25:00,53.6,-99.9,28.78,North,-999,-999.0,-999.0,-999,-99.99,,,-99.99,,2013-06-12 03:25:00,
2013-06-11 23:27:00,53.6,-99.9,28.78,North,-999,-999.0,-999.0,-999,-99.99,,,-99.99,,2013-06-12 03:27:00,
2013-06-11 23:29:00,53.5,-99.9,28.75,North,-999,-999.0,-999.0,-999,-99.99,,,-99.99,,2013-06-12 03:29:00,
2013-06-11 23:31:00,53.3,-99.9,28.75,North,-999,-999.0,-999.0,-999,-99.99,,,-99.99,,2013-06-12 03:31:00,
2013-06-11 23:33:00,53.3,-99.9,28.75,North,-999,-999.0,-999.0,-999,-99.99,,,-99.99,,2013-06-12 03:33:00,
2013-06-11 23:35:00,53.4,-99.9,28.75,North,-999,-999.0,-999.0,-999,-99.99,,,-99.99,,2013-06-12 03:35:00,
2013-06-11 23:37:00,53.4,-99.9,28.75,North,-999,-999.0,-999.0,-999,-99.99,,,-99.99,,2013-06-12 03:37:00,
2013-06-11 23:39:00,53.5,-99.9,28.78,North,-999,-999.0,-999.0,-999,-99.99,,,-99.99,,2013-06-12 03:39:00,
2013-06-11 23:41:00,53.5,-99.9,28.75,North,-999,-999.0,-999.0,-999,-99.99,,,-99.99,,2013-06-12 03:41:00,
2013-06-11 23:51:00,53.4,-99.9,28.75,North,-999,-999.0,-999.0,-999,-99.99,,,-99.99,,2013-06-12 03:51:00,
2013-06-11 23:53:00,53.2,-99.9,28.75,North,-999,-999.0,-999.0,-999,-99.99,,,-99.99,,2013-06-12 03:53:00,
2013-06-11 23:55:00,53.1,-99.9,28.75,North,-999,-999.0,-999.0,-999,-99.99,,,-99.99,,2013-06-12 03:55:00,
2013-06-11 23:57:00,52.9,-99.9,28.75,North,-999,-999.0,-999.0,-999,-99.99,,,-99.99,,2013-06-12 03:57:00,
2013-06-11 23:59:00,54.1,-99.9,28.78,North,-999,-999.0,-999.0,-999,-99.99,,,-99.99,,2013-06-12 03:59:00,